JA4041 RJDA-RJDA

Flight info

Callsign JA4041
Flight time 0h 8m
Altitude 1499
Route RJDA/C172
Aircraft C172/L-G/C

Departure

Time 2026-05-06 06:58
Airport Amakusa Airport (RJDA)

Arrival

Time 2026-05-06 07:07
Airport Amakusa Airport (RJDA)
Time Latitude Longitude Altitude Speed Heading
2026-05-06 06:46 32.48348 130.15542 341 ft 0 kts 40°
2026-05-06 06:55 32.48354 130.15575 346 ft 8 kts 86°
2026-05-06 06:56 32.48388 130.15636 340 ft 10 kts 89°
2026-05-06 06:56 32.48349 130.15720 344 ft 15 kts 122°
2026-05-06 06:56 32.48275 130.15853 339 ft 24 kts 126°
2026-05-06 06:56 32.48168 130.16034 343 ft 27 kts 127°
2026-05-06 06:57 32.48073 130.16197 347 ft 17 kts 124°
2026-05-06 06:57 32.48038 130.16238 347 ft 10 kts 342°
2026-05-06 06:57 32.48084 130.16179 343 ft 18 kts 304°
2026-05-06 06:57 32.48258 130.15883 340 ft 68 kts 304°
2026-05-06 06:58 32.48520 130.15387 521 ft 74 kts 306°
2026-05-06 06:58 32.48856 130.14906 753 ft 76 kts 333°
2026-05-06 06:58 32.49359 130.14970 982 ft 77 kts 24°
2026-05-06 06:58 32.49831 130.15234 1207 ft 77 kts 15°
2026-05-06 06:59 32.50195 130.15686 1317 ft 82 kts 84°
2026-05-06 06:59 32.50015 130.16352 1328 ft 90 kts 117°
2026-05-06 06:59 32.49710 130.17029 1254 ft 93 kts 118°
2026-05-06 06:59 32.49399 130.17710 1198 ft 96 kts 123°
2026-05-06 07:00 32.49015 130.18366 1234 ft 95 kts 125°
2026-05-06 07:00 32.48635 130.18982 1231 ft 95 kts 130°
2026-05-06 07:00 32.48069 130.19305 1142 ft 94 kts 183°
2026-05-06 07:00 32.47431 130.19144 1045 ft 92 kts 196°
2026-05-06 07:01 32.46942 130.18699 893 ft 91 kts 257°
2026-05-06 07:01 32.47054 130.17986 751 ft 91 kts 299°
2026-05-06 07:01 32.47395 130.17364 627 ft 88 kts 309°
2026-05-06 07:01 32.47724 130.16801 488 ft 77 kts 305°
2026-05-06 07:02 32.48013 130.16326 386 ft 65 kts 298°
2026-05-06 07:02 32.48235 130.15918 340 ft 51 kts 311°
2026-05-06 07:02 32.48489 130.15495 394 ft 73 kts 307°
2026-05-06 07:02 32.48810 130.15020 614 ft 76 kts 323°
2026-05-06 07:03 32.49250 130.14664 833 ft 80 kts 328°
2026-05-06 07:03 32.49757 130.14503 1083 ft 79 kts 20°
2026-05-06 07:03 32.50131 130.15036 1199 ft 95 kts 64°
2026-05-06 07:03 32.50454 130.15761 1363 ft 99 kts 56°
2026-05-06 07:04 32.50609 130.16528 1484 ft 98 kts 104°
2026-05-06 07:04 32.50197 130.17200 1508 ft 105 kts 132°
2026-05-06 07:04 32.49770 130.17837 1562 ft 93 kts 130°
2026-05-06 07:04 32.49354 130.18400 1467 ft 91 kts 131°
2026-05-06 07:05 32.48948 130.18974 1315 ft 96 kts 135°
2026-05-06 07:05 32.48349 130.19180 1193 ft 94 kts 194°
2026-05-06 07:05 32.47751 130.18954 1104 ft 86 kts 216°
2026-05-06 07:05 32.47362 130.18441 928 ft 86 kts 251°
2026-05-06 07:06 32.47261 130.17753 747 ft 84 kts 271°
2026-05-06 07:06 32.47493 130.17180 610 ft 75 kts 310°
2026-05-06 07:06 32.47780 130.16678 467 ft 73 kts 308°
2026-05-06 07:06 32.48065 130.16205 362 ft 69 kts 307°
2026-05-06 07:07 32.48293 130.15826 340 ft 43 kts 306°
2026-05-06 07:07 32.48392 130.15630 341 ft 22 kts 255°
2026-05-06 07:07 32.48298 130.15584 342 ft 13 kts 271°
2026-05-06 07:07 32.48351 130.15540 346 ft 7 kts 57°
2026-05-06 07:08 32.48353 130.15543 353 ft 0 kts 57°